Flight Track Log - Related Links

Times and Time Zones

All times are in EDT time to prevent confusion due to time zone crossing. See the ASQ5415 flight status page for this flight to view local times or setup timezone preferences in your user account.

Time Position Orientation Groundspeed Altitude Reporting Facility
EDT Latitude Longitude Course Direction KTS MPH feet Rate Location/Type
Wed 07:12:30 AM 30.7128 -88.2642 North 153 176 1,200  Level Houston Center
Wed 07:13:30 AM 30.7606 -88.2583 North 193 222 2,700 1,636 Climbing Houston Center
Wed 07:14:31 AM 30.8231 -88.2258 24° Northeast 240 276 4,500 1,884 Climbing Houston Center
Wed 07:15:31 AM 30.8769 -88.1575 47° Northeast 284 327 6,500 2,033 Climbing Houston Center
Wed 07:16:32 AM 30.9303 -88.0844 50° Northeast 298 343 8,600 1,918 Climbing Houston Center
Wed 07:17:33 AM 30.9883 -88.0092 48° Northeast 313 360 10,400 1,438 Climbing Houston Center
Wed 07:18:33 AM 31.0647 -87.9072 49° Northeast 349 402 11,500 1,091 Climbing Houston Center
Wed 07:19:34 AM 31.1328 -87.8158 49° Northeast 373 429 12,600 1,339 Climbing Houston Center
Wed 07:20:34 AM 31.2014 -87.7242 49° Northeast 376 433 14,200 1,388 Climbing Houston Center
Wed 07:21:35 AM 31.2692 -87.6319 49° Northeast 374 430 15,400 1,180 Climbing Houston Center
Wed 07:22:36 AM 31.3369 -87.5392 49° Northeast 376 433 16,600 1,091 Climbing Houston Center
Wed 07:23:36 AM 31.4069 -87.4453 49° Northeast 383 441 17,600 1,041 Climbing Houston Center
Wed 07:24:37 AM 31.4761 -87.3492 50° Northeast 385 443 18,700 1,033 Climbing Houston Center
Wed 07:25:38 AM 31.5464 -87.2544 49° Northeast 385 443 19,700 992 Climbing Houston Center
Wed 07:26:38 AM 31.6158 -87.1600 49° Northeast 384 442 20,700 843 Climbing Houston Center
Wed 07:27:39 AM 31.6858 -87.0628 50° Northeast 388 447 21,400 689 Climbing Houston Center
Wed 07:28:40 AM 31.7569 -86.9642 50° Northeast 395 455 22,100 689 Climbing Houston Center
Wed 07:29:41 AM 31.8300 -86.8636 49° Northeast 403 464 22,800 446 Climbing Houston Center
Wed 07:30:41 AM 31.9050 -86.7625 49° Northeast 410 472 23,000 99 Climbing Houston Center
Wed 07:31:42 AM 31.9944 -86.6494 47° Northeast 424 488 23,000  Level Atlanta Center
Wed 07:32:43 AM 32.0739 -86.5414 49° Northeast 436 502 23,000  Level Atlanta Center
Wed 07:33:43 AM 32.1556 -86.4283 50° Northeast 441 507 23,000  Level Atlanta Center
Wed 07:34:43 AM 32.2244 -86.3222 52° Northeast 447 514 23,000  Level Atlanta Center
Wed 07:35:43 AM 32.3164 -86.1967 49° Northeast 452 520 23,000  Level Atlanta Center
Wed 07:36:43 AM 32.3997 -86.0831 49° Northeast 452 520 23,000  Level Atlanta Center
Wed 07:37:43 AM 32.4850 -85.9694 48° Northeast 452 520 23,000  Level Atlanta Center
Wed 07:38:43 AM 32.5850 -85.8383 48° Northeast 466 536 23,000  Level Atlanta Center
Wed 07:39:43 AM 32.6703 -85.7217 49° Northeast 466 536 23,000  Level Atlanta Center
Wed 07:40:43 AM 32.7531 -85.6072 49° Northeast 466 536 23,000 -550 Level Atlanta Center
Wed 07:41:43 AM 32.8422 -85.4925 47° Northeast 466 536 21,900 -1,900 Descending Atlanta Center
Wed 07:42:43 AM 32.9228 -85.3778 50° Northeast 460 529 19,200 -2,700 Descending Atlanta Center
Wed 07:43:43 AM 33.0011 -85.2747 48° Northeast 441 507 16,500 1,900 Descending Atlanta Center
Wed 07:44:43 AM 33.0644 -85.1939 47° Northeast 413 475 23,000 -2,100 Climbing Atlanta Center
Wed 07:45:43 AM 33.1342 -85.1031 47° Northeast 373 429 12,300 -5,500 Descending Atlanta Center
Wed 07:46:43 AM 33.1933 -85.0219 49° Northeast 338 389 12,000 -200 Descending Atlanta Center
Wed 07:47:43 AM 33.2567 -84.9406 47° Northeast 325 374 11,900 -800 Descending Atlanta Center
Wed 07:48:43 AM 33.3467 -84.9117 15° North 300 345 10,400 -1,500 Descending Atlanta Center
Wed 07:49:43 AM 33.4303 -84.9000 North 300 345 8,900 -1,400 Descending Atlanta Center
Wed 07:50:43 AM 33.5117 -84.8858 North 295 339 7,600 -950 Descending Atlanta Center
Wed 07:51:43 AM 33.5931 -84.8742 North 295 339 7,000 -303 Descending Atlanta Center
Wed 07:52:22 AM 33.6333 -84.8333 40° Northeast 276 318 7,100 -545 Climbing Atlanta TRACON
Wed 07:53:22 AM 33.6333 -84.7500 90° East 248 285 6,100 -1,250 Descending Atlanta TRACON
Wed 07:54:22 AM 33.6333 -84.6667 90° East 244 281 4,600 -1,350 Descending Atlanta TRACON
Wed 07:55:22 AM 33.6333 -84.5833 90° East 218 251 3,400 -1,100 Descending Atlanta TRACON
Wed 07:56:22 AM 33.6333 -84.5333 90° East 177 204 2,400 -900 Descending Atlanta TRACON
Wed 07:57:22 AM 33.6333 -84.4833 90° East 141 162 1,600 -800 Descending Atlanta TRACON
Wed 07:59:00 AM 33.6367 -84.4279 90° East  Level Estimated
Wed 08:06:00 AM 33.6367 -84.4279 90° East  Level Estimated

Login

Don't have an account? Register now (free) for customized features, flight alerts, and more!